sensor_id;sensor_type;location;lat;lon;timestamp;temperature;humidity
71837;DHT22;59686;51.716;7.016;2022-12-07T00:01:27;7.90;85.90
71837;DHT22;59686;51.716;7.016;2022-12-07T00:03:54;7.90;85.90
71837;DHT22;59686;51.716;7.016;2022-12-07T00:06:22;7.90;85.90
71837;DHT22;59686;51.716;7.016;2022-12-07T00:08:48;7.90;85.80
71837;DHT22;59686;51.716;7.016;2022-12-07T00:11:17;7.90;85.80
71837;DHT22;59686;51.716;7.016;2022-12-07T00:13:43;7.90;85.80
71837;DHT22;59686;51.716;7.016;2022-12-07T00:16:12;7.90;85.80
71837;DHT22;59686;51.716;7.016;2022-12-07T00:18:38;7.90;85.80
71837;DHT22;59686;51.716;7.016;2022-12-07T00:21:25;7.90;85.80
71837;DHT22;59686;51.716;7.016;2022-12-07T00:23:52;7.90;85.80
71837;DHT22;59686;51.716;7.016;2022-12-07T00:26:25;7.90;85.80
71837;DHT22;59686;51.716;7.016;2022-12-07T00:29:00;7.90;85.80
71837;DHT22;59686;51.716;7.016;2022-12-07T00:31:31;7.90;85.80
71837;DHT22;59686;51.716;7.016;2022-12-07T00:33:59;7.90;85.80
71837;DHT22;59686;51.716;7.016;2022-12-07T00:36:29;7.90;85.80
71837;DHT22;59686;51.716;7.016;2022-12-07T00:38:55;7.90;85.90
71837;DHT22;59686;51.716;7.016;2022-12-07T00:41:24;7.90;85.80
71837;DHT22;59686;51.716;7.016;2022-12-07T00:43:51;7.90;85.80
71837;DHT22;59686;51.716;7.016;2022-12-07T00:46:18;7.90;85.80
71837;DHT22;59686;51.716;7.016;2022-12-07T00:48:44;7.80;85.70
71837;DHT22;59686;51.716;7.016;2022-12-07T00:51:11;7.90;85.70
71837;DHT22;59686;51.716;7.016;2022-12-07T00:53:39;7.90;85.80
71837;DHT22;59686;51.716;7.016;2022-12-07T00:56:06;7.90;85.70
71837;DHT22;59686;51.716;7.016;2022-12-07T00:58:32;7.90;85.80
71837;DHT22;59686;51.716;7.016;2022-12-07T01:01:00;7.90;86.50
71837;DHT22;59686;51.716;7.016;2022-12-07T01:03:27;7.90;85.80
71837;DHT22;59686;51.716;7.016;2022-12-07T01:05:54;7.90;85.80
71837;DHT22;59686;51.716;7.016;2022-12-07T01:08:21;7.90;85.80
71837;DHT22;59686;51.716;7.016;2022-12-07T01:11:08;7.90;85.70
71837;DHT22;59686;51.716;7.016;2022-12-07T01:13:35;7.90;85.70
71837;DHT22;59686;51.716;7.016;2022-12-07T01:16:04;7.90;85.70
71837;DHT22;59686;51.716;7.016;2022-12-07T01:18:32;7.90;85.60
71837;DHT22;59686;51.716;7.016;2022-12-07T01:21:04;7.90;85.70
71837;DHT22;59686;51.716;7.016;2022-12-07T01:23:31;7.90;85.60
71837;DHT22;59686;51.716;7.016;2022-12-07T01:26:02;7.90;85.60
71837;DHT22;59686;51.716;7.016;2022-12-07T01:28:28;7.80;85.60
71837;DHT22;59686;51.716;7.016;2022-12-07T01:31:03;7.90;85.60
71837;DHT22;59686;51.716;7.016;2022-12-07T01:33:34;7.90;85.60
71837;DHT22;59686;51.716;7.016;2022-12-07T01:36:34;7.90;85.60
71837;DHT22;59686;51.716;7.016;2022-12-07T01:39:03;7.90;85.60
71837;DHT22;59686;51.716;7.016;2022-12-07T01:41:35;7.90;85.60
71837;DHT22;59686;51.716;7.016;2022-12-07T01:44:23;8.00;85.60
71837;DHT22;59686;51.716;7.016;2022-12-07T01:46:55;7.90;85.60
71837;DHT22;59686;51.716;7.016;2022-12-07T01:49:34;7.90;85.60
71837;DHT22;59686;51.716;7.016;2022-12-07T01:52:10;7.90;85.50
71837;DHT22;59686;51.716;7.016;2022-12-07T01:54:38;7.90;85.40
71837;DHT22;59686;51.716;7.016;2022-12-07T01:57:06;7.90;85.40
71837;DHT22;59686;51.716;7.016;2022-12-07T01:59:33;7.90;85.40
71837;DHT22;59686;51.716;7.016;2022-12-07T02:02:02;7.90;85.40
71837;DHT22;59686;51.716;7.016;2022-12-07T02:04:29;7.90;85.40
71837;DHT22;59686;51.716;7.016;2022-12-07T02:06:56;7.90;85.30
71837;DHT22;59686;51.716;7.016;2022-12-07T02:09:22;7.80;85.20
71837;DHT22;59686;51.716;7.016;2022-12-07T02:11:48;7.90;85.20
71837;DHT22;59686;51.716;7.016;2022-12-07T02:14:13;8.00;85.30
71837;DHT22;59686;51.716;7.016;2022-12-07T02:17:19;7.90;85.90
71837;DHT22;59686;51.716;7.016;2022-12-07T02:25:18;7.90;85.10
71837;DHT22;59686;51.716;7.016;2022-12-07T02:27:56;7.90;85.00
71837;DHT22;59686;51.716;7.016;2022-12-07T02:30:31;7.90;85.00
71837;DHT22;59686;51.716;7.016;2022-12-07T02:33:05;7.90;84.90
71837;DHT22;59686;51.716;7.016;2022-12-07T02:43:33;7.90;84.80
71837;DHT22;59686;51.716;7.016;2022-12-07T02:46:06;7.90;84.80
71837;DHT22;59686;51.716;7.016;2022-12-07T02:48:33;7.90;84.70
71837;DHT22;59686;51.716;7.016;2022-12-07T02:51:00;7.90;84.80
71837;DHT22;59686;51.716;7.016;2022-12-07T02:53:33;7.90;84.70
71837;DHT22;59686;51.716;7.016;2022-12-07T02:56:06;7.90;84.70
71837;DHT22;59686;51.716;7.016;2022-12-07T03:10:34;7.90;84.50
71837;DHT22;59686;51.716;7.016;2022-12-07T03:18:58;7.90;84.40
71837;DHT22;59686;51.716;7.016;2022-12-07T03:21:33;7.90;84.30
71837;DHT22;59686;51.716;7.016;2022-12-07T03:24:04;7.90;84.30
71837;DHT22;59686;51.716;7.016;2022-12-07T03:26:34;7.80;84.10
71837;DHT22;59686;51.716;7.016;2022-12-07T03:29:07;7.80;84.10
71837;DHT22;59686;51.716;7.016;2022-12-07T03:31:48;7.80;84.10
71837;DHT22;59686;51.716;7.016;2022-12-07T03:34:32;7.80;84.10
71837;DHT22;59686;51.716;7.016;2022-12-07T03:37:18;7.80;83.90
71837;DHT22;59686;51.716;7.016;2022-12-07T03:39:57;7.80;84.00
71837;DHT22;59686;51.716;7.016;2022-12-07T03:42:24;7.80;84.00
71837;DHT22;59686;51.716;7.016;2022-12-07T03:44:50;7.80;84.00
71837;DHT22;59686;51.716;7.016;2022-12-07T03:47:26;7.80;84.00
71837;DHT22;59686;51.716;7.016;2022-12-07T03:50:24;7.80;84.00
71837;DHT22;59686;51.716;7.016;2022-12-07T03:52:55;7.80;83.90
71837;DHT22;59686;51.716;7.016;2022-12-07T03:55:55;7.80;83.90
71837;DHT22;59686;51.716;7.016;2022-12-07T03:58:23;7.80;83.90
71837;DHT22;59686;51.716;7.016;2022-12-07T04:00:49;7.80;83.90
71837;DHT22;59686;51.716;7.016;2022-12-07T04:03:15;7.80;83.90
71837;DHT22;59686;51.716;7.016;2022-12-07T04:05:42;7.80;83.80
71837;DHT22;59686;51.716;7.016;2022-12-07T04:08:08;7.80;83.80
71837;DHT22;59686;51.716;7.016;2022-12-07T04:10:53;7.80;83.80
71837;DHT22;59686;51.716;7.016;2022-12-07T04:13:19;7.80;83.70
71837;DHT22;59686;51.716;7.016;2022-12-07T04:15:44;7.80;83.70
71837;DHT22;59686;51.716;7.016;2022-12-07T04:18:10;7.80;83.80
71837;DHT22;59686;51.716;7.016;2022-12-07T04:20:35;7.80;83.70
71837;DHT22;59686;51.716;7.016;2022-12-07T04:23:01;7.80;83.60
71837;DHT22;59686;51.716;7.016;2022-12-07T04:25:27;7.80;83.60
71837;DHT22;59686;51.716;7.016;2022-12-07T04:27:52;7.80;83.50
71837;DHT22;59686;51.716;7.016;2022-12-07T04:30:19;7.80;83.50
71837;DHT22;59686;51.716;7.016;2022-12-07T04:32:44;7.70;83.50
71837;DHT22;59686;51.716;7.016;2022-12-07T04:35:10;7.80;83.50
71837;DHT22;59686;51.716;7.016;2022-12-07T04:37:36;7.90;83.60
71837;DHT22;59686;51.716;7.016;2022-12-07T04:40:07;7.80;83.50
71837;DHT22;59686;51.716;7.016;2022-12-07T04:42:33;7.80;83.50
71837;DHT22;59686;51.716;7.016;2022-12-07T04:44:58;7.80;83.30
71837;DHT22;59686;51.716;7.016;2022-12-07T04:47:24;7.70;83.30
71837;DHT22;59686;51.716;7.016;2022-12-07T04:50:00;7.80;83.40
71837;DHT22;59686;51.716;7.016;2022-12-07T04:52:26;7.90;83.50
71837;DHT22;59686;51.716;7.016;2022-12-07T04:54:51;7.80;83.40
71837;DHT22;59686;51.716;7.016;2022-12-07T04:57:17;7.80;83.40
71837;DHT22;59686;51.716;7.016;2022-12-07T04:59:42;7.80;83.40
71837;DHT22;59686;51.716;7.016;2022-12-07T05:02:08;7.80;83.40
71837;DHT22;59686;51.716;7.016;2022-12-07T05:04:34;7.80;83.30
71837;DHT22;59686;51.716;7.016;2022-12-07T05:06:59;7.80;83.40
71837;DHT22;59686;51.716;7.016;2022-12-07T05:09:42;7.80;83.30
71837;DHT22;59686;51.716;7.016;2022-12-07T05:12:08;7.80;83.30
71837;DHT22;59686;51.716;7.016;2022-12-07T05:14:33;7.80;83.40
71837;DHT22;59686;51.716;7.016;2022-12-07T05:16:59;7.80;83.40
71837;DHT22;59686;51.716;7.016;2022-12-07T05:19:25;7.90;83.30
71837;DHT22;59686;51.716;7.016;2022-12-07T05:21:52;7.80;83.20
71837;DHT22;59686;51.716;7.016;2022-12-07T05:24:17;7.70;83.00
71837;DHT22;59686;51.716;7.016;2022-12-07T05:26:43;7.80;83.20
71837;DHT22;59686;51.716;7.016;2022-12-07T05:29:15;7.70;83.20
71837;DHT22;59686;51.716;7.016;2022-12-07T05:31:41;7.70;83.20
71837;DHT22;59686;51.716;7.016;2022-12-07T05:34:07;7.70;83.20
71837;DHT22;59686;51.716;7.016;2022-12-07T05:36:33;7.70;83.20
71837;DHT22;59686;51.716;7.016;2022-12-07T05:38:58;7.80;83.20
71837;DHT22;59686;51.716;7.016;2022-12-07T05:41:24;7.70;83.20
71837;DHT22;59686;51.716;7.016;2022-12-07T05:44:19;7.70;83.10
71837;DHT22;59686;51.716;7.016;2022-12-07T05:46:44;7.70;83.20
71837;DHT22;59686;51.716;7.016;2022-12-07T05:49:10;7.70;83.10
71837;DHT22;59686;51.716;7.016;2022-12-07T05:51:36;7.70;83.20
71837;DHT22;59686;51.716;7.016;2022-12-07T05:54:02;7.70;83.00
71837;DHT22;59686;51.716;7.016;2022-12-07T05:56:27;7.70;82.90
71837;DHT22;59686;51.716;7.016;2022-12-07T05:58:53;7.70;83.00
71837;DHT22;59686;51.716;7.016;2022-12-07T06:01:38;7.70;83.00
71837;DHT22;59686;51.716;7.016;2022-12-07T06:04:03;7.70;83.00
71837;DHT22;59686;51.716;7.016;2022-12-07T06:06:29;7.70;82.90
71837;DHT22;59686;51.716;7.016;2022-12-07T06:08:55;7.70;82.80
71837;DHT22;59686;51.716;7.016;2022-12-07T06:11:20;7.70;82.80
71837;DHT22;59686;51.716;7.016;2022-12-07T06:14:04;7.70;82.80
71837;DHT22;59686;51.716;7.016;2022-12-07T06:16:30;7.70;82.80
71837;DHT22;59686;51.716;7.016;2022-12-07T06:19:10;7.60;82.70
71837;DHT22;59686;51.716;7.016;2022-12-07T06:21:36;7.60;82.80
71837;DHT22;59686;51.716;7.016;2022-12-07T06:24:01;7.60;82.80
71837;DHT22;59686;51.716;7.016;2022-12-07T06:26:27;7.80;83.00
71837;DHT22;59686;51.716;7.016;2022-12-07T06:28:53;7.60;82.80
71837;DHT22;59686;51.716;7.016;2022-12-07T06:31:19;7.60;82.80
71837;DHT22;59686;51.716;7.016;2022-12-07T06:33:44;7.60;82.70
71837;DHT22;59686;51.716;7.016;2022-12-07T06:36:10;7.70;82.80
71837;DHT22;59686;51.716;7.016;2022-12-07T06:38:37;7.70;82.80
71837;DHT22;59686;51.716;7.016;2022-12-07T06:41:02;7.60;82.80
71837;DHT22;59686;51.716;7.016;2022-12-07T06:43:29;7.60;82.80
71837;DHT22;59686;51.716;7.016;2022-12-07T06:45:55;7.60;82.80
71837;DHT22;59686;51.716;7.016;2022-12-07T06:48:20;7.60;82.80
71837;DHT22;59686;51.716;7.016;2022-12-07T06:50:47;7.60;82.80
71837;DHT22;59686;51.716;7.016;2022-12-07T06:53:13;7.60;82.80
71837;DHT22;59686;51.716;7.016;2022-12-07T06:55:39;7.60;83.50
71837;DHT22;59686;51.716;7.016;2022-12-07T06:58:04;7.60;82.70
71837;DHT22;59686;51.716;7.016;2022-12-07T07:00:30;7.60;82.70
71837;DHT22;59686;51.716;7.016;2022-12-07T07:02:56;7.60;82.70
71837;DHT22;59686;51.716;7.016;2022-12-07T07:05:21;7.60;82.60
71837;DHT22;59686;51.716;7.016;2022-12-07T07:07:48;7.60;82.60
71837;DHT22;59686;51.716;7.016;2022-12-07T07:10:14;7.60;82.50
71837;DHT22;59686;51.716;7.016;2022-12-07T07:12:40;7.60;82.50
71837;DHT22;59686;51.716;7.016;2022-12-07T07:15:06;7.60;82.50
71837;DHT22;59686;51.716;7.016;2022-12-07T07:17:32;7.60;82.40
71837;DHT22;59686;51.716;7.016;2022-12-07T07:19:57;7.60;82.50
71837;DHT22;59686;51.716;7.016;2022-12-07T07:22:23;7.60;82.60
71837;DHT22;59686;51.716;7.016;2022-12-07T07:24:49;7.60;82.50
71837;DHT22;59686;51.716;7.016;2022-12-07T07:27:14;7.60;82.50
71837;DHT22;59686;51.716;7.016;2022-12-07T07:29:40;7.60;82.50
71837;DHT22;59686;51.716;7.016;2022-12-07T07:32:05;7.60;82.60
71837;DHT22;59686;51.716;7.016;2022-12-07T07:34:33;7.60;82.40
71837;DHT22;59686;51.716;7.016;2022-12-07T07:36:58;7.60;82.50
71837;DHT22;59686;51.716;7.016;2022-12-07T07:39:24;7.60;82.60
71837;DHT22;59686;51.716;7.016;2022-12-07T07:41:50;7.60;82.50
71837;DHT22;59686;51.716;7.016;2022-12-07T07:44:23;7.60;82.50
71837;DHT22;59686;51.716;7.016;2022-12-07T07:46:49;7.70;83.30
71837;DHT22;59686;51.716;7.016;2022-12-07T07:49:15;7.60;82.50
71837;DHT22;59686;51.716;7.016;2022-12-07T07:51:40;7.50;82.40
71837;DHT22;59686;51.716;7.016;2022-12-07T07:54:06;7.60;82.40
71837;DHT22;59686;51.716;7.016;2022-12-07T07:56:32;7.60;82.40
71837;DHT22;59686;51.716;7.016;2022-12-07T07:58:57;7.60;82.30
71837;DHT22;59686;51.716;7.016;2022-12-07T08:01:23;7.60;82.40
71837;DHT22;59686;51.716;7.016;2022-12-07T08:03:49;7.60;82.40
71837;DHT22;59686;51.716;7.016;2022-12-07T08:06:14;7.60;82.40
71837;DHT22;59686;51.716;7.016;2022-12-07T08:08:40;7.60;82.40
71837;DHT22;59686;51.716;7.016;2022-12-07T08:11:07;7.60;82.50
71837;DHT22;59686;51.716;7.016;2022-12-07T08:13:33;7.60;82.40
71837;DHT22;59686;51.716;7.016;2022-12-07T08:16:03;7.60;82.30
71837;DHT22;59686;51.716;7.016;2022-12-07T08:18:29;7.60;82.30
71837;DHT22;59686;51.716;7.016;2022-12-07T08:21:01;7.60;82.30
71837;DHT22;59686;51.716;7.016;2022-12-07T08:23:27;7.60;82.30
71837;DHT22;59686;51.716;7.016;2022-12-07T08:25:53;7.60;82.30
71837;DHT22;59686;51.716;7.016;2022-12-07T08:28:19;7.60;82.30
71837;DHT22;59686;51.716;7.016;2022-12-07T08:30:44;7.60;82.30
71837;DHT22;59686;51.716;7.016;2022-12-07T08:33:10;7.60;82.20
71837;DHT22;59686;51.716;7.016;2022-12-07T08:35:36;7.60;82.20
71837;DHT22;59686;51.716;7.016;2022-12-07T08:38:02;7.60;82.10
71837;DHT22;59686;51.716;7.016;2022-12-07T08:40:29;7.60;82.20
71837;DHT22;59686;51.716;7.016;2022-12-07T08:42:55;7.50;82.10
71837;DHT22;59686;51.716;7.016;2022-12-07T08:45:21;7.50;82.10
71837;DHT22;59686;51.716;7.016;2022-12-07T08:47:57;7.50;82.10
71837;DHT22;59686;51.716;7.016;2022-12-07T08:50:26;7.50;82.20
71837;DHT22;59686;51.716;7.016;2022-12-07T08:52:54;7.70;82.30
71837;DHT22;59686;51.716;7.016;2022-12-07T08:55:20;7.50;82.20
71837;DHT22;59686;51.716;7.016;2022-12-07T08:57:47;7.50;82.20
71837;DHT22;59686;51.716;7.016;2022-12-07T09:00:13;7.50;82.20
71837;DHT22;59686;51.716;7.016;2022-12-07T09:02:40;7.50;82.10
71837;DHT22;59686;51.716;7.016;2022-12-07T09:05:05;7.40;82.80
71837;DHT22;59686;51.716;7.016;2022-12-07T09:07:34;7.50;82.20
71837;DHT22;59686;51.716;7.016;2022-12-07T09:10:00;7.50;82.10
71837;DHT22;59686;51.716;7.016;2022-12-07T09:12:26;7.60;82.30
71837;DHT22;59686;51.716;7.016;2022-12-07T09:14:51;7.50;82.30
71837;DHT22;59686;51.716;7.016;2022-12-07T09:17:17;7.50;82.20
71837;DHT22;59686;51.716;7.016;2022-12-07T09:19:42;7.50;82.20
71837;DHT22;59686;51.716;7.016;2022-12-07T09:22:08;7.50;82.20
71837;DHT22;59686;51.716;7.016;2022-12-07T09:24:34;7.50;82.20
71837;DHT22;59686;51.716;7.016;2022-12-07T09:27:00;7.50;82.30
71837;DHT22;59686;51.716;7.016;2022-12-07T09:29:26;7.50;82.20
71837;DHT22;59686;51.716;7.016;2022-12-07T09:31:52;7.50;82.10
71837;DHT22;59686;51.716;7.016;2022-12-07T09:34:18;7.50;82.20
71837;DHT22;59686;51.716;7.016;2022-12-07T09:36:44;7.50;82.20
71837;DHT22;59686;51.716;7.016;2022-12-07T09:39:10;7.50;82.20
71837;DHT22;59686;51.716;7.016;2022-12-07T09:41:48;7.50;82.20
71837;DHT22;59686;51.716;7.016;2022-12-07T09:44:21;7.50;82.30
71837;DHT22;59686;51.716;7.016;2022-12-07T09:46:48;7.50;82.30
71837;DHT22;59686;51.716;7.016;2022-12-07T09:49:21;7.50;82.30
71837;DHT22;59686;51.716;7.016;2022-12-07T09:51:58;7.50;82.40
71837;DHT22;59686;51.716;7.016;2022-12-07T09:54:24;7.50;83.20
71837;DHT22;59686;51.716;7.016;2022-12-07T09:56:50;7.50;82.40
71837;DHT22;59686;51.716;7.016;2022-12-07T09:59:18;7.50;82.40
71837;DHT22;59686;51.716;7.016;2022-12-07T10:01:49;7.50;82.50
71837;DHT22;59686;51.716;7.016;2022-12-07T10:04:18;7.60;82.50
71837;DHT22;59686;51.716;7.016;2022-12-07T10:06:44;7.50;82.40
71837;DHT22;59686;51.716;7.016;2022-12-07T10:09:19;7.50;82.30
71837;DHT22;59686;51.716;7.016;2022-12-07T10:12:17;7.60;82.40
71837;DHT22;59686;51.716;7.016;2022-12-07T10:15:01;7.50;83.00
71837;DHT22;59686;51.716;7.016;2022-12-07T10:17:37;7.60;82.50
71837;DHT22;59686;51.716;7.016;2022-12-07T10:22:38;7.60;82.50
71837;DHT22;59686;51.716;7.016;2022-12-07T10:25:20;7.50;82.50
71837;DHT22;59686;51.716;7.016;2022-12-07T10:30:33;7.50;82.50
71837;DHT22;59686;51.716;7.016;2022-12-07T10:32:59;7.50;82.60
71837;DHT22;59686;51.716;7.016;2022-12-07T10:35:25;7.50;82.60
71837;DHT22;59686;51.716;7.016;2022-12-07T10:37:53;7.50;82.60
71837;DHT22;59686;51.716;7.016;2022-12-07T10:40:34;7.50;82.60
71837;DHT22;59686;51.716;7.016;2022-12-07T10:43:05;7.50;82.70
71837;DHT22;59686;51.716;7.016;2022-12-07T10:45:34;7.50;82.70
71837;DHT22;59686;51.716;7.016;2022-12-07T10:48:15;7.60;82.80
71837;DHT22;59686;51.716;7.016;2022-12-07T10:51:12;7.60;82.70
71837;DHT22;59686;51.716;7.016;2022-12-07T10:56:53;7.50;82.70
71837;DHT22;59686;51.716;7.016;2022-12-07T11:04:59;7.50;82.70
71837;DHT22;59686;51.716;7.016;2022-12-07T11:07:39;7.50;82.80
71837;DHT22;59686;51.716;7.016;2022-12-07T11:10:13;7.60;82.90
71837;DHT22;59686;51.716;7.016;2022-12-07T11:21:34;7.70;82.70
71837;DHT22;59686;51.716;7.016;2022-12-07T11:24:18;7.60;82.70
71837;DHT22;59686;51.716;7.016;2022-12-07T11:27:12;7.60;82.80
71837;DHT22;59686;51.716;7.016;2022-12-07T11:30:02;7.60;82.70
71837;DHT22;59686;51.716;7.016;2022-12-07T11:35:25;7.60;82.90
71837;DHT22;59686;51.716;7.016;2022-12-07T11:37:59;7.60;82.80
71837;DHT22;59686;51.716;7.016;2022-12-07T11:40:30;7.60;82.90
71837;DHT22;59686;51.716;7.016;2022-12-07T11:43:13;7.60;82.90
71837;DHT22;59686;51.716;7.016;2022-12-07T11:45:42;7.60;82.90
71837;DHT22;59686;51.716;7.016;2022-12-07T11:50:53;7.70;82.80
71837;DHT22;59686;51.716;7.016;2022-12-07T11:53:27;7.70;82.70
71837;DHT22;59686;51.716;7.016;2022-12-07T11:56:11;7.70;82.80
71837;DHT22;59686;51.716;7.016;2022-12-07T12:04:47;7.70;82.80
71837;DHT22;59686;51.716;7.016;2022-12-07T12:07:20;7.70;82.70
71837;DHT22;59686;51.716;7.016;2022-12-07T12:10:17;7.70;82.80
71837;DHT22;59686;51.716;7.016;2022-12-07T12:16:01;7.80;82.70
71837;DHT22;59686;51.716;7.016;2022-12-07T12:18:49;7.70;82.70
71837;DHT22;59686;51.716;7.016;2022-12-07T12:21:22;7.80;82.50
71837;DHT22;59686;51.716;7.016;2022-12-07T12:24:03;7.80;82.30
71837;DHT22;59686;51.716;7.016;2022-12-07T12:26:32;7.80;82.20
71837;DHT22;59686;51.716;7.016;2022-12-07T12:29:05;7.70;82.30
71837;DHT22;59686;51.716;7.016;2022-12-07T12:31:34;7.80;82.50
71837;DHT22;59686;51.716;7.016;2022-12-07T12:34:05;7.80;82.50
71837;DHT22;59686;51.716;7.016;2022-12-07T12:36:50;7.70;82.30
71837;DHT22;59686;51.716;7.016;2022-12-07T12:39:17;7.80;82.20
71837;DHT22;59686;51.716;7.016;2022-12-07T12:46:59;7.80;82.30
71837;DHT22;59686;51.716;7.016;2022-12-07T12:52:01;7.80;82.10
71837;DHT22;59686;51.716;7.016;2022-12-07T12:55:15;7.70;82.30
71837;DHT22;59686;51.716;7.016;2022-12-07T12:57:46;7.70;82.40
71837;DHT22;59686;51.716;7.016;2022-12-07T13:00:19;7.70;82.60
71837;DHT22;59686;51.716;7.016;2022-12-07T13:02:53;7.70;82.50
71837;DHT22;59686;51.716;7.016;2022-12-07T13:05:23;7.70;82.50
71837;DHT22;59686;51.716;7.016;2022-12-07T13:15:44;7.70;82.80
71837;DHT22;59686;51.716;7.016;2022-12-07T13:20:55;7.60;82.30
71837;DHT22;59686;51.716;7.016;2022-12-07T13:23:26;7.70;82.60
71837;DHT22;59686;51.716;7.016;2022-12-07T13:28:52;7.70;82.80
71837;DHT22;59686;51.716;7.016;2022-12-07T13:31:34;7.70;82.90
71837;DHT22;59686;51.716;7.016;2022-12-07T13:34:02;7.70;82.90
71837;DHT22;59686;51.716;7.016;2022-12-07T13:36:38;7.70;83.10
71837;DHT22;59686;51.716;7.016;2022-12-07T13:39:32;7.70;83.30
71837;DHT22;59686;51.716;7.016;2022-12-07T13:41:59;7.70;83.50
71837;DHT22;59686;51.716;7.016;2022-12-07T13:44:28;7.80;83.70
71837;DHT22;59686;51.716;7.016;2022-12-07T13:47:25;7.80;84.00
71837;DHT22;59686;51.716;7.016;2022-12-07T13:49:54;7.80;84.10
71837;DHT22;59686;51.716;7.016;2022-12-07T13:57:21;7.80;84.20
71837;DHT22;59686;51.716;7.016;2022-12-07T13:59:47;7.90;84.10
71837;DHT22;59686;51.716;7.016;2022-12-07T14:02:27;7.80;83.90
71837;DHT22;59686;51.716;7.016;2022-12-07T14:05:14;7.80;83.90
71837;DHT22;59686;51.716;7.016;2022-12-07T14:10:54;7.90;83.80
71837;DHT22;59686;51.716;7.016;2022-12-07T14:13:36;7.90;83.90
71837;DHT22;59686;51.716;7.016;2022-12-07T14:16:33;7.90;83.80
71837;DHT22;59686;51.716;7.016;2022-12-07T14:19:02;7.90;83.50
71837;DHT22;59686;51.716;7.016;2022-12-07T14:21:31;7.90;84.10
71837;DHT22;59686;51.716;7.016;2022-12-07T14:26:28;7.90;83.20
71837;DHT22;59686;51.716;7.016;2022-12-07T14:31:53;7.90;83.20
71837;DHT22;59686;51.716;7.016;2022-12-07T14:34:23;7.90;83.20
71837;DHT22;59686;51.716;7.016;2022-12-07T14:36:49;7.80;83.20
71837;DHT22;59686;51.716;7.016;2022-12-07T14:39:15;7.90;83.30
71837;DHT22;59686;51.716;7.016;2022-12-07T14:41:44;7.90;83.30
71837;DHT22;59686;51.716;7.016;2022-12-07T14:44:23;7.90;83.30
71837;DHT22;59686;51.716;7.016;2022-12-07T14:46:50;7.90;83.20
71837;DHT22;59686;51.716;7.016;2022-12-07T14:49:16;7.90;83.20
71837;DHT22;59686;51.716;7.016;2022-12-07T14:51:43;7.90;83.10
71837;DHT22;59686;51.716;7.016;2022-12-07T14:54:17;7.90;82.90
71837;DHT22;59686;51.716;7.016;2022-12-07T14:56:44;7.80;82.60
71837;DHT22;59686;51.716;7.016;2022-12-07T14:59:11;7.80;82.80
71837;DHT22;59686;51.716;7.016;2022-12-07T15:01:37;7.80;82.60
71837;DHT22;59686;51.716;7.016;2022-12-07T15:04:04;7.80;82.60
71837;DHT22;59686;51.716;7.016;2022-12-07T15:06:30;7.80;82.50
71837;DHT22;59686;51.716;7.016;2022-12-07T15:08:56;7.80;82.70
71837;DHT22;59686;51.716;7.016;2022-12-07T15:11:22;7.80;82.60
71837;DHT22;59686;51.716;7.016;2022-12-07T15:13:47;7.80;82.70
71837;DHT22;59686;51.716;7.016;2022-12-07T15:16:31;7.80;82.60
71837;DHT22;59686;51.716;7.016;2022-12-07T15:18:57;7.90;82.80
71837;DHT22;59686;51.716;7.016;2022-12-07T15:21:23;7.90;82.80
71837;DHT22;59686;51.716;7.016;2022-12-07T15:23:48;7.90;82.80
71837;DHT22;59686;51.716;7.016;2022-12-07T15:26:14;8.00;82.80
71837;DHT22;59686;51.716;7.016;2022-12-07T15:28:41;7.90;82.80
71837;DHT22;59686;51.716;7.016;2022-12-07T15:31:14;7.90;82.80
71837;DHT22;59686;51.716;7.016;2022-12-07T15:33:40;7.90;82.80
71837;DHT22;59686;51.716;7.016;2022-12-07T15:36:06;7.90;82.90
71837;DHT22;59686;51.716;7.016;2022-12-07T15:38:32;7.90;82.70
71837;DHT22;59686;51.716;7.016;2022-12-07T15:40:57;7.90;82.80
71837;DHT22;59686;51.716;7.016;2022-12-07T15:43:23;8.00;82.90
71837;DHT22;59686;51.716;7.016;2022-12-07T15:46:07;7.90;82.80
71837;DHT22;59686;51.716;7.016;2022-12-07T15:48:33;7.90;82.80
71837;DHT22;59686;51.716;7.016;2022-12-07T15:51:06;8.00;82.90
71837;DHT22;59686;51.716;7.016;2022-12-07T15:53:33;7.90;82.80
71837;DHT22;59686;51.716;7.016;2022-12-07T15:56:00;7.90;82.80
71837;DHT22;59686;51.716;7.016;2022-12-07T15:58:26;7.90;82.80
71837;DHT22;59686;51.716;7.016;2022-12-07T16:00:51;7.90;83.50
71837;DHT22;59686;51.716;7.016;2022-12-07T16:03:17;7.90;82.80
71837;DHT22;59686;51.716;7.016;2022-12-07T16:05:49;7.90;82.80
71837;DHT22;59686;51.716;7.016;2022-12-07T16:08:15;7.90;82.90
71837;DHT22;59686;51.716;7.016;2022-12-07T16:10:40;7.90;82.90
71837;DHT22;59686;51.716;7.016;2022-12-07T16:13:11;7.90;82.90
71837;DHT22;59686;51.716;7.016;2022-12-07T16:15:42;7.90;82.90
71837;DHT22;59686;51.716;7.016;2022-12-07T16:18:08;7.90;82.90
71837;DHT22;59686;51.716;7.016;2022-12-07T16:20:34;7.90;82.90
71837;DHT22;59686;51.716;7.016;2022-12-07T16:23:00;8.00;82.90
71837;DHT22;59686;51.716;7.016;2022-12-07T16:25:30;7.90;82.90
71837;DHT22;59686;51.716;7.016;2022-12-07T16:27:56;7.90;82.90
71837;DHT22;59686;51.716;7.016;2022-12-07T16:30:22;7.90;82.80
71837;DHT22;59686;51.716;7.016;2022-12-07T16:32:57;8.00;82.60
71837;DHT22;59686;51.716;7.016;2022-12-07T16:35:22;7.90;82.50
71837;DHT22;59686;51.716;7.016;2022-12-07T16:37:48;7.90;82.20
71837;DHT22;59686;51.716;7.016;2022-12-07T16:40:13;7.90;82.20
71837;DHT22;59686;51.716;7.016;2022-12-07T16:42:39;7.90;82.30
71837;DHT22;59686;51.716;7.016;2022-12-07T16:45:05;7.90;82.40
71837;DHT22;59686;51.716;7.016;2022-12-07T16:47:31;7.90;82.30
71837;DHT22;59686;51.716;7.016;2022-12-07T16:49:57;7.90;82.10
71837;DHT22;59686;51.716;7.016;2022-12-07T16:52:22;7.90;82.20
71837;DHT22;59686;51.716;7.016;2022-12-07T16:54:48;7.90;82.20
71837;DHT22;59686;51.716;7.016;2022-12-07T16:57:15;7.90;82.30
71837;DHT22;59686;51.716;7.016;2022-12-07T16:59:40;7.90;82.10
71837;DHT22;59686;51.716;7.016;2022-12-07T17:02:11;7.90;82.10
71837;DHT22;59686;51.716;7.016;2022-12-07T17:04:37;7.90;82.20
71837;DHT22;59686;51.716;7.016;2022-12-07T17:07:08;7.90;82.30
71837;DHT22;59686;51.716;7.016;2022-12-07T17:09:34;7.90;82.30
71837;DHT22;59686;51.716;7.016;2022-12-07T17:12:00;7.90;82.40
71837;DHT22;59686;51.716;7.016;2022-12-07T17:14:26;7.90;82.50
71837;DHT22;59686;51.716;7.016;2022-12-07T17:17:10;7.90;82.50
71837;DHT22;59686;51.716;7.016;2022-12-07T17:19:36;7.90;82.50
71837;DHT22;59686;51.716;7.016;2022-12-07T17:22:02;7.90;82.50
71837;DHT22;59686;51.716;7.016;2022-12-07T17:24:27;8.00;82.60
71837;DHT22;59686;51.716;7.016;2022-12-07T17:26:53;7.90;82.70
71837;DHT22;59686;51.716;7.016;2022-12-07T17:29:19;7.90;82.70
71837;DHT22;59686;51.716;7.016;2022-12-07T17:31:46;7.90;82.70
71837;DHT22;59686;51.716;7.016;2022-12-07T17:34:13;7.90;82.70
71837;DHT22;59686;51.716;7.016;2022-12-07T17:36:40;8.00;82.80
71837;DHT22;59686;51.716;7.016;2022-12-07T17:39:10;7.90;82.70
71837;DHT22;59686;51.716;7.016;2022-12-07T17:41:37;8.00;83.40
71837;DHT22;59686;51.716;7.016;2022-12-07T17:44:22;7.90;82.70
71837;DHT22;59686;51.716;7.016;2022-12-07T17:46:56;7.90;82.70